Terminal Aerodrome Forecast
Issued by NWS

Home | Current Version | Previous Version | Text Only | Print | Product List | Glossary On
Versions: 1 2 3 4 5 6 7 8 9 10 11 12 13 14 15 16 17
000
FTUS43 KIWX 041100
TAFSBN
TAF
KSBN 041135Z 0412/0512 30010KT P6SM SCT015 BKN025
     FM041600 30012G19KT P6SM BKN025
     FM050000 30009KT P6SM BKN035=

USA.gov is the U.S. government's official web portal to all federal, state and local government web resources and services.